createdAt,value
2022-11-30T00:00:55.583Z,100503.84
2022-11-30T00:04:57.454Z,100504.34
2022-11-30T00:08:59.430Z,100499.84
2022-11-30T00:13:01.459Z,100503.41
2022-11-30T00:17:03.356Z,100521.94
2022-11-30T00:21:08.924Z,100508.91
2022-11-30T00:25:10.903Z,100507.78
2022-11-30T00:29:13.138Z,100505.06
2022-11-30T00:33:15.091Z,100521.75
2022-11-30T00:37:17.079Z,100511.28
2022-11-30T00:41:19.468Z,100525.66
2022-11-30T00:45:21.345Z,100520.06
2022-11-30T00:49:23.289Z,100519.38
2022-11-30T00:53:25.077Z,100511.00
2022-11-30T00:57:26.912Z,100518.25
2022-11-30T01:01:28.819Z,100507.63
2022-11-30T01:05:32.239Z,100506.06
2022-11-30T01:09:34.170Z,100515.44
2022-11-30T01:13:36.030Z,100512.91
2022-11-30T01:17:37.913Z,100506.34
2022-11-30T01:21:39.896Z,100499.53
2022-11-30T01:25:41.840Z,100496.81
2022-11-30T01:29:43.727Z,100495.25
2022-11-30T01:33:55.140Z,100489.00
2022-11-30T01:37:57.038Z,100499.00
2022-11-30T01:41:59.121Z,100485.88
2022-11-30T01:46:01.796Z,100494.03
2022-11-30T01:50:11.214Z,100502.97
2022-11-30T01:54:16.431Z,100502.56
2022-11-30T01:58:36.683Z,100512.66
2022-11-30T02:03:21.105Z,100508.78
2022-11-30T02:07:23.107Z,100511.53
2022-11-30T02:11:25.109Z,100510.81
2022-11-30T02:15:29.784Z,100513.88
2022-11-30T02:19:57.367Z,100512.38
2022-11-30T02:24:12.346Z,100521.94
2022-11-30T02:28:51.492Z,100528.28
2022-11-30T02:33:20.809Z,100528.56
2022-11-30T02:37:22.786Z,100523.66
2022-11-30T02:41:24.609Z,100524.91
2022-11-30T02:45:56.352Z,100511.91
2022-11-30T02:50:18.997Z,100505.66
2022-11-30T02:54:20.778Z,100521.25
2022-11-30T02:58:22.825Z,100531.63
2022-11-30T03:02:31.170Z,100523.13
2022-11-30T03:06:40.064Z,100537.03
2022-11-30T03:10:41.870Z,100538.84
2022-11-30T03:14:50.144Z,100540.69
2022-11-30T03:18:58.059Z,100542.38
2022-11-30T03:23:03.184Z,100551.91
2022-11-30T03:27:05.039Z,100556.44
2022-11-30T03:31:06.972Z,100556.97
2022-11-30T03:35:09.151Z,100554.72
2022-11-30T03:39:11.156Z,100561.91
2022-11-30T03:43:12.978Z,100552.69
2022-11-30T03:47:14.922Z,100552.97
2022-11-30T03:51:16.855Z,100554.91
2022-11-30T03:55:18.859Z,100557.72
2022-11-30T03:59:20.700Z,100553.38
2022-11-30T04:03:25.324Z,100563.47
2022-11-30T04:07:27.351Z,100554.66
2022-11-30T04:11:29.447Z,100563.19
2022-11-30T04:15:31.301Z,100566.31
2022-11-30T04:19:33.118Z,100558.88
2022-11-30T04:23:38.389Z,100566.09
2022-11-30T04:27:40.241Z,100566.63
2022-11-30T04:31:42.185Z,100570.41
2022-11-30T04:35:48.998Z,100568.47
2022-11-30T04:39:50.896Z,100566.47
2022-11-30T04:43:52.747Z,100575.97
2022-11-30T04:47:54.649Z,100564.53
2022-11-30T04:51:58.772Z,100568.28
2022-11-30T04:56:06.853Z,100578.31
2022-11-30T05:00:10.412Z,100576.09
2022-11-30T05:04:12.357Z,100577.84
2022-11-30T05:08:14.350Z,100584.69
2022-11-30T05:12:16.298Z,100592.84
2022-11-30T05:16:26.985Z,100585.81
2022-11-30T05:42:40.557Z,100606.34
2022-11-30T05:47:01.381Z,100621.38
2022-11-30T05:51:23.502Z,100621.19
2022-11-30T05:56:16.608Z,100625.34
2022-11-30T06:00:32.121Z,100627.72
2022-11-30T06:04:49.706Z,100632.69
2022-11-30T06:14:26.006Z,100637.31
2022-11-30T06:18:30.586Z,100645.28
2022-11-30T06:24:01.290Z,100641.22
2022-11-30T06:28:32.792Z,100643.69
2022-11-30T06:32:34.944Z,100649.13
2022-11-30T06:36:40.143Z,100639.44
2022-11-30T06:41:34.573Z,100656.75
2022-11-30T06:45:45.237Z,100659.31
2022-11-30T06:49:47.631Z,100642.88
2022-11-30T06:53:49.824Z,100660.28
2022-11-30T06:57:54.702Z,100668.22
2022-11-30T07:02:31.189Z,100672.22
2022-11-30T07:06:35.754Z,100672.50
2022-11-30T07:10:42.361Z,100682.16
2022-11-30T07:15:33.592Z,100685.84
2022-11-30T07:19:22.926Z,100694.31
2022-11-30T07:24:15.874Z,100683.63
2022-11-30T07:50:49.059Z,100697.47
2022-11-30T07:59:59.294Z,100699.13
2022-11-30T08:04:07.153Z,100695.97
2022-11-30T08:08:20.913Z,100693.66
2022-11-30T08:13:37.173Z,100683.22
2022-11-30T08:17:44.857Z,100685.41
2022-11-30T08:22:04.327Z,100683.28
2022-11-30T08:26:59.462Z,100695.88
2022-11-30T08:31:09.123Z,100690.31
2022-11-30T08:35:12.089Z,100697.63
2022-11-30T08:39:15.672Z,100707.25
2022-11-30T08:43:23.638Z,100705.13
2022-11-30T08:48:09.850Z,100705.13
2022-11-30T08:54:23.027Z,100719.53
2022-11-30T08:58:29.108Z,100704.94
2022-11-30T09:24:36.472Z,100721.84
2022-11-30T09:28:47.046Z,100729.44
2022-11-30T09:32:49.327Z,100725.72
2022-11-30T09:36:53.779Z,100725.66
2022-11-30T09:42:11.391Z,100720.41
2022-11-30T09:47:31.871Z,100724.75
2022-11-30T09:52:26.430Z,100723.06
2022-11-30T09:56:35.341Z,100723.38
2022-11-30T10:28:24.251Z,100711.59
2022-11-30T10:39:45.590Z,100710.50
2022-11-30T20:55:45.899Z,100945.06
2022-11-30T20:59:56.425Z,100947.59
2022-11-30T21:04:19.127Z,100947.91
2022-11-30T21:16:09.352Z,100957.28
2022-11-30T21:42:56.048Z,100966.25
